Time;durP1;ratioP1;P1;durP2;ratioP2;P2;SDS_P1;SDS_P2;PMS_P1;PMS_P2;Temp;Humidity;BMP_temperature;BMP_pressure;BME280_temperature;BME280_humidity;BME280_pressure;Samples;Min_cycle;Max_cycle;Signal;HPM_P1;HPM_P2
2021/06/21 00:01:51;;;;;;;7.07;5.47;;;28.60;50.00;;;;;;4401634;32;20066;-38
2021/06/21 00:04:17;;;;;;;9.00;5.57;;;28.30;51.20;;;;;;4405824;32;20108;-38
2021/06/21 00:06:44;;;;;;;10.05;5.50;;;28.00;51.60;;;;;;4406327;32;20069;-38
2021/06/21 00:09:10;;;;;;;9.38;5.80;;;27.80;52.10;;;;;;4405725;32;20442;-37
2021/06/21 00:11:37;;;;;;;8.25;5.78;;;27.60;52.30;;;;;;4405965;32;20074;-37
2021/06/21 00:14:03;;;;;;;9.68;5.18;;;27.50;52.50;;;;;;4405638;32;20066;-37
2021/06/21 00:16:30;;;;;;;13.75;5.62;;;27.50;52.60;;;;;;4405913;32;20089;-37
2021/06/21 00:18:57;;;;;;;13.55;5.50;;;27.60;52.70;;;;;;4406129;32;20065;-37
2021/06/21 00:21:24;;;;;;;11.60;5.90;;;27.80;52.60;;;;;;4406016;32;20064;-38
2021/06/21 00:23:50;;;;;;;8.00;5.37;;;27.90;52.30;;;;;;4405822;32;20148;-38
2021/06/21 00:26:16;;;;;;;9.05;4.55;;;28.10;51.90;;;;;;4391693;32;20157;-37
2021/06/21 00:28:43;;;;;;;9.60;5.22;;;28.10;51.40;;;;;;4405705;32;20548;-37
2021/06/21 00:31:09;;;;;;;8.60;5.60;;;28.00;51.30;;;;;;4405511;32;20088;-37
2021/06/21 00:33:36;;;;;;;9.23;5.60;;;27.90;51.50;;;;;;4405892;32;20057;-37
2021/06/21 00:36:06;;;;;;;10.35;5.18;;;27.80;51.70;;;;;;4405662;32;20509;-37
2021/06/21 00:38:32;;;;;;;7.18;5.50;;;27.90;52.00;;;;;;4405334;32;20485;-38
2021/06/21 00:40:59;;;;;;;12.55;5.78;;;27.90;51.80;;;;;;4392209;32;20054;-38
2021/06/21 00:43:25;;;;;;;8.50;4.80;;;27.90;51.70;;;;;;4405425;32;20485;-38
2021/06/21 00:45:52;;;;;;;6.30;5.10;;;28.00;51.90;;;;;;4405443;32;20069;-38
2021/06/21 00:48:18;;;;;;;7.15;4.93;;;28.10;52.00;;;;;;4391120;32;20159;-37
2021/06/21 00:50:44;;;;;;;5.30;4.90;;;28.10;51.70;;;;;;4391001;32;20123;-37
2021/06/21 00:53:11;;;;;;;5.60;5.10;;;28.20;51.30;;;;;;4405393;32;20064;-37
2021/06/21 00:55:37;;;;;;;8.93;5.85;;;28.10;51.30;;;;;;4391131;32;20185;-37
2021/06/21 00:58:04;;;;;;;11.45;4.72;;;27.90;51.60;;;;;;4405433;32;20506;-37
2021/06/21 01:00:30;;;;;;;6.30;4.93;;;28.00;51.80;;;;;;4391180;32;20534;-37
2021/06/21 01:02:58;;;;;;;8.50;5.03;;;28.10;51.60;;;;;;4391412;32;20080;-39
2021/06/21 01:05:26;;;;;;;6.00;4.43;;;28.20;51.30;;;;;;4405501;32;20075;-38
2021/06/21 01:07:53;;;;;;;5.75;4.90;;;28.40;51.10;;;;;;4390472;32;20065;-38
2021/06/21 01:10:23;;;;;;;8.43;5.62;;;28.50;50.70;;;;;;4390044;32;20080;-38
2021/06/21 01:13:21;;;;;;;6.93;3.87;;;28.70;50.30;;;;;;4389756;32;20461;-37
2021/06/21 01:16:18;;;;;;;5.93;4.47;;;28.90;49.80;;;;;;4392173;32;20105;-38
2021/06/21 01:18:57;;;;;;;6.12;4.40;;;29.20;49.50;;;;;;4404457;32;20105;-38
2021/06/21 01:21:54;;;;;;;8.27;4.78;;;29.30;48.90;;;;;;4403945;32;20483;-38
2021/06/21 01:24:42;;;;;;;8.82;4.25;;;29.30;48.10;;;;;;4404166;32;20061;-37
2021/06/21 01:27:21;;;;;;;11.55;4.12;;;29.00;47.40;;;;;;4389618;32;20116;-37
2021/06/21 01:29:58;;;;;;;5.40;4.00;;;28.90;46.90;;;;;;4404011;32;20551;-37
2021/06/21 01:32:35;;;;;;;10.25;4.68;;;28.90;48.90;;;;;;4389539;32;20551;-38
2021/06/21 01:35:02;;;;;;;10.30;4.12;;;28.90;48.10;;;;;;4390792;32;20097;-37
2021/06/21 01:37:28;;;;;;;4.12;3.83;;;28.90;47.30;;;;;;4389883;32;20465;-38
2021/06/21 01:39:56;;;;;;;7.68;4.28;;;29.00;47.70;;;;;;4389445;32;20046;-38
2021/06/21 01:42:23;;;;;;;7.15;4.47;;;29.10;47.90;;;;;;4390037;32;20097;-37
2021/06/21 01:45:04;;;;;;;9.55;5.45;;;29.20;47.60;;;;;;4389983;32;20068;-36
2021/06/21 01:47:30;;;;;;;10.15;9.00;;;29.30;47.40;;;;;;4387325;32;20064;-36
2021/06/21 01:49:57;;;;;;;6.68;4.03;;;29.50;47.30;;;;;;4388729;32;20093;-37
2021/06/21 01:52:24;;;;;;;9.23;5.32;;;29.70;46.10;;;;;;4387284;32;20092;-37
2021/06/21 01:54:55;;;;;;;7.53;6.70;;;30.00;45.40;;;;;;4387326;32;20073;-36
2021/06/21 01:57:33;;;;;;;11.60;5.32;;;30.20;45.50;;;;;;4386834;32;20045;-36
2021/06/21 02:00:08;;;;;;;13.93;5.97;;;30.50;45.10;;;;;;4388612;32;20069;-37
2021/06/21 02:02:35;;;;;;;8.98;5.70;;;30.80;44.20;;;;;;4387293;32;20058;-36
2021/06/21 02:05:04;;;;;;;6.25;4.93;;;31.30;43.50;;;;;;4387154;32;20202;-37
2021/06/21 02:07:30;;;;;;;6.05;5.45;;;31.70;42.30;;;;;;4388627;32;20571;-38
2021/06/21 02:09:56;;;;;;;7.93;5.68;;;32.20;41.40;;;;;;4387971;32;20070;-38
2021/06/21 02:12:25;;;;;;;11.10;5.82;;;32.60;40.40;;;;;;4343592;32;20074;-38
2021/06/21 02:14:52;;;;;;;6.87;5.80;;;33.00;39.30;;;;;;4356912;32;20066;-38
2021/06/21 02:17:29;;;;;;;10.52;5.68;;;33.50;38.70;;;;;;4356716;32;20086;-38
2021/06/21 02:19:56;;;;;;;5.93;5.32;;;33.90;38.30;;;;;;4344266;32;20205;-38
2021/06/21 02:22:24;;;;;;;7.45;5.37;;;34.20;37.50;;;;;;4326527;33;20578;-38
2021/06/21 02:24:52;;;;;;;8.52;4.97;;;34.60;37.10;;;;;;4314253;33;20082;-39
2021/06/21 02:27:18;;;;;;;9.68;5.85;;;34.90;36.60;;;;;;4270575;33;20094;-38
2021/06/21 02:29:45;;;;;;;9.18;4.43;;;35.20;35.90;;;;;;4253761;33;20130;-38
2021/06/21 02:32:12;;;;;;;6.45;4.82;;;35.50;34.80;;;;;;4242500;33;20156;-38
2021/06/21 02:34:38;;;;;;;12.73;4.65;;;35.80;34.10;;;;;;4242823;33;20537;-38
2021/06/21 02:37:04;;;;;;;4.70;3.65;;;36.20;33.50;;;;;;4254593;33;20072;-39
2021/06/21 02:39:31;;;;;;;6.03;4.43;;;36.60;32.30;;;;;;4254334;33;20083;-38
2021/06/21 02:41:57;;;;;;;5.50;4.18;;;37.00;31.80;;;;;;4267952;33;20081;-38
2021/06/21 02:44:24;;;;;;;7.72;3.75;;;37.40;30.70;;;;;;4292979;33;20102;-38
2021/06/21 02:46:50;;;;;;;5.85;3.92;;;37.70;30.00;;;;;;4296973;33;20083;-36
2021/06/21 02:49:17;;;;;;;4.22;3.87;;;38.10;29.50;;;;;;4297450;33;20079;-36
2021/06/21 02:52:14;;;;;;;16.67;4.82;;;38.30;29.30;;;;;;4297069;33;20079;-36
2021/06/21 02:55:06;;;;;;;8.68;4.68;;;38.60;29.40;;;;;;4326787;33;20483;-37
2021/06/21 02:57:50;;;;;;;11.05;4.22;;;38.80;29.00;;;;;;4326554;33;20062;-37
2021/06/21 03:00:18;;;;;;;6.18;4.40;;;39.10;28.90;;;;;;4326621;33;20583;-37
2021/06/21 03:02:44;;;;;;;7.30;4.32;;;39.30;28.80;;;;;;4302304;33;20070;-37
2021/06/21 03:05:11;;;;;;;13.70;4.22;;;39.50;28.60;;;;;;4314443;33;20099;-37
2021/06/21 03:07:38;;;;;;;5.32;4.32;;;39.70;28.50;;;;;;4336185;33;20063;-37
2021/06/21 03:10:05;;;;;;;10.63;4.28;;;39.90;28.50;;;;;;4317097;33;20067;-38
2021/06/21 03:12:31;;;;;;;6.05;3.28;;;40.00;28.30;;;;;;4341201;33;20066;-37
2021/06/21 03:14:58;;;;;;;5.57;4.22;;;40.10;28.20;;;;;;4325807;32;20070;-38
2021/06/21 03:17:24;;;;;;;5.70;4.43;;;40.20;28.20;;;;;;4355318;32;20157;-38
2021/06/21 03:19:51;;;;;;;6.10;3.60;;;40.30;28.10;;;;;;4351289;32;20077;-37
2021/06/21 03:22:19;;;;;;;3.85;3.37;;;40.40;27.80;;;;;;4372926;32;20102;-38
2021/06/21 03:24:51;;;;;;;5.80;3.95;;;40.60;27.80;;;;;;4373004;32;20079;-37
2021/06/21 03:27:18;;;;;;;5.30;3.92;;;40.60;27.70;;;;;;4385716;32;20074;-37
2021/06/21 03:29:44;;;;;;;3.62;3.17;;;40.70;27.50;;;;;;4385487;32;20082;-37
2021/06/21 03:32:34;;;;;;;5.30;3.03;;;40.80;27.30;;;;;;4360515;32;20097;-37
2021/06/21 03:35:02;;;;;;;7.20;3.72;;;40.90;27.10;;;;;;4385328;32;20116;-38
2021/06/21 03:37:30;;;;;;;6.82;3.30;;;41.00;26.60;;;;;;4385649;32;20153;-37
2021/06/21 03:39:56;;;;;;;10.13;3.80;;;40.90;26.50;;;;;;4385468;32;20087;-37
2021/06/21 03:42:23;;;;;;;5.30;3.33;;;41.00;26.80;;;;;;4385689;32;20062;-37
2021/06/21 03:44:50;;;;;;;4.95;3.40;;;41.00;26.50;;;;;;4385688;32;20081;-37
2021/06/21 03:47:16;;;;;;;3.67;3.25;;;41.00;26.50;;;;;;4360587;32;20061;-38
2021/06/21 03:49:47;;;;;;;3.33;2.92;;;41.10;26.40;;;;;;4385623;32;20547;-38
2021/06/21 03:52:14;;;;;;;4.07;3.20;;;41.10;26.40;;;;;;4385028;32;20553;-37
2021/06/21 03:54:40;;;;;;;3.60;2.42;;;41.30;26.20;;;;;;4386395;32;20073;-38
2021/06/21 03:57:07;;;;;;;5.72;3.72;;;41.40;26.10;;;;;;4388135;32;20123;-37
2021/06/21 03:59:34;;;;;;;5.18;2.33;;;41.50;26.00;;;;;;4388242;32;20603;-38
2021/06/21 04:02:01;;;;;;;6.00;2.53;;;41.50;25.80;;;;;;4387824;32;20086;-38
2021/06/21 04:04:28;;;;;;;7.45;2.40;;;41.50;25.70;;;;;;4387830;32;20062;-38
2021/06/21 04:06:54;;;;;;;4.25;2.30;;;41.50;25.50;;;;;;4386381;32;20145;-38
2021/06/21 04:09:21;;;;;;;2.30;1.90;;;41.60;25.60;;;;;;4388086;32;20525;-39
2021/06/21 04:11:47;;;;;;;3.97;2.17;;;41.60;25.50;;;;;;4387280;32;20074;-38
2021/06/21 04:14:14;;;;;;;2.72;2.33;;;41.70;25.30;;;;;;4387534;32;20082;-38
2021/06/21 04:16:41;;;;;;;3.25;2.17;;;41.90;25.20;;;;;;4386657;32;20101;-38
2021/06/21 04:19:08;;;;;;;5.97;2.50;;;42.00;25.30;;;;;;4387691;32;20144;-38
2021/06/21 04:21:35;;;;;;;3.03;2.37;;;42.00;25.20;;;;;;4387792;32;20080;-38
2021/06/21 04:24:01;;;;;;;8.68;2.45;;;42.00;25.40;;;;;;4387618;32;20066;-38
2021/06/21 04:26:27;;;;;;;6.62;2.83;;;41.80;25.50;;;;;;4387688;32;20061;-37
2021/06/21 04:28:54;;;;;;;3.85;3.10;;;41.70;25.50;;;;;;4385804;32;20467;-36
2021/06/21 04:31:20;;;;;;;6.03;2.85;;;41.60;25.60;;;;;;4387294;32;20054;-37
2021/06/21 04:33:47;;;;;;;5.53;2.25;;;41.40;25.60;;;;;;4386279;32;20069;-37
2021/06/21 04:36:13;;;;;;;4.22;2.65;;;41.10;25.80;;;;;;4385657;32;20074;-37
2021/06/21 04:38:40;;;;;;;6.85;2.72;;;40.80;25.80;;;;;;4387718;32;20065;-38
2021/06/21 04:41:06;;;;;;;4.32;2.75;;;40.50;26.40;;;;;;4387094;32;20073;-38
2021/06/21 04:43:33;;;;;;;6.90;2.80;;;40.10;26.60;;;;;;4386923;32;20147;-38
2021/06/21 04:46:03;;;;;;;10.18;2.47;;;40.00;26.80;;;;;;4387367;32;20235;-38
2021/06/21 04:48:29;;;;;;;3.15;2.53;;;39.80;26.90;;;;;;4389709;32;20066;-38
2021/06/21 04:50:56;;;;;;;4.18;2.12;;;39.70;26.90;;;;;;4389918;32;20517;-38
2021/06/21 04:53:23;;;;;;;4.75;2.37;;;39.70;26.70;;;;;;4390088;32;20165;-37
2021/06/21 04:55:50;;;;;;;5.85;2.08;;;39.70;26.80;;;;;;4390073;32;20067;-37
2021/06/21 04:58:17;;;;;;;4.55;2.37;;;39.60;26.90;;;;;;4390439;32;20073;-38
2021/06/21 05:00:43;;;;;;;2.45;2.22;;;39.50;27.00;;;;;;4390703;32;20090;-36
2021/06/21 05:03:09;;;;;;;5.22;2.30;;;39.40;26.90;;;;;;4389916;32;20058;-38
2021/06/21 05:05:37;;;;;;;2.97;2.15;;;39.50;27.10;;;;;;4390329;32;20601;-38
2021/06/21 05:08:04;;;;;;;4.43;2.92;;;39.60;27.00;;;;;;4389508;32;20589;-38
2021/06/21 05:10:31;;;;;;;4.30;2.78;;;39.70;27.20;;;;;;4390138;32;20139;-38
2021/06/21 05:12:57;;;;;;;11.98;2.80;;;39.70;27.00;;;;;;4389860;32;20078;-38
2021/06/21 05:15:23;;;;;;;6.78;3.53;;;39.70;27.20;;;;;;4389536;32;20071;-38
2021/06/21 05:17:50;;;;;;;11.27;3.25;;;39.70;27.00;;;;;;4389671;32;20111;-37
2021/06/21 05:20:16;;;;;;;6.80;3.08;;;39.80;27.20;;;;;;4390079;32;20086;-36
2021/06/21 05:22:43;;;;;;;6.68;3.35;;;40.00;27.30;;;;;;4389859;32;20100;-37
2021/06/21 05:25:10;;;;;;;12.23;3.30;;;40.10;27.40;;;;;;4389532;32;20096;-38
2021/06/21 05:27:37;;;;;;;7.03;2.78;;;40.20;27.60;;;;;;4389872;32;20093;-38
2021/06/21 05:30:04;;;;;;;5.82;3.83;;;40.20;27.60;;;;;;4389654;32;20200;-39
2021/06/21 05:32:31;;;;;;;11.95;3.65;;;40.20;27.90;;;;;;4389427;32;20434;-38
2021/06/21 05:34:57;;;;;;;3.62;3.30;;;40.20;28.00;;;;;;4389622;32;20070;-38
2021/06/21 05:37:24;;;;;;;7.93;3.25;;;40.30;28.10;;;;;;4389551;32;20645;-37
2021/06/21 05:39:50;;;;;;;3.55;3.22;;;40.30;28.30;;;;;;4389109;32;20062;-37
2021/06/21 05:42:18;;;;;;;11.63;3.53;;;40.30;28.00;;;;;;4390099;32;20061;-37
2021/06/21 05:44:46;;;;;;;11.98;3.20;;;40.40;28.20;;;;;;4390079;32;20615;-38
2021/06/21 05:47:14;;;;;;;5.87;3.22;;;40.50;28.10;;;;;;4389341;32;20099;-40
2021/06/21 05:49:41;;;;;;;6.05;3.42;;;40.60;28.40;;;;;;4390832;32;20065;-38
2021/06/21 05:52:07;;;;;;;7.18;3.78;;;40.60;28.40;;;;;;4404448;32;20093;-38
2021/06/21 05:54:34;;;;;;;6.37;3.62;;;40.60;28.10;;;;;;4390238;32;20066;-38
2021/06/21 05:57:03;;;;;;;7.10;3.12;;;40.50;28.20;;;;;;4404267;32;20087;-38
2021/06/21 05:59:29;;;;;;;7.43;3.60;;;40.20;28.10;;;;;;4403553;32;20140;-38
2021/06/21 06:01:56;;;;;;;5.60;3.42;;;39.90;28.50;;;;;;4404095;32;20042;-38
2021/06/21 06:04:22;;;;;;;11.32;5.87;;;39.70;28.70;;;;;;4404056;32;20089;-37
2021/06/21 06:06:49;;;;;;;3.92;3.40;;;39.70;28.90;;;;;;4403663;32;20061;-37
2021/06/21 06:09:15;;;;;;;5.22;4.18;;;39.60;29.00;;;;;;4404483;32;20054;-38
2021/06/21 06:11:41;;;;;;;5.00;4.05;;;39.50;29.20;;;;;;4404236;32;20062;-38
2021/06/21 06:14:08;;;;;;;5.25;4.10;;;39.40;29.50;;;;;;4404077;32;20455;-38
2021/06/21 06:16:34;;;;;;;6.65;4.53;;;39.30;29.70;;;;;;4404405;32;20164;-39
2021/06/21 06:19:01;;;;;;;6.55;4.35;;;39.20;29.60;;;;;;4404054;32;20069;-37
2021/06/21 06:21:29;;;;;;;7.00;4.50;;;39.20;29.70;;;;;;4404401;32;20085;-38
2021/06/21 06:23:57;;;;;;;8.30;5.10;;;39.30;30.00;;;;;;4389621;32;20061;-38
2021/06/21 06:26:24;;;;;;;6.60;4.70;;;39.40;30.10;;;;;;4389928;32;20486;-37
2021/06/21 06:28:51;;;;;;;6.05;5.12;;;39.50;29.70;;;;;;4403906;32;20077;-36
2021/06/21 06:31:17;;;;;;;5.85;4.60;;;39.60;29.80;;;;;;4389805;32;20523;-39
2021/06/21 06:33:43;;;;;;;6.47;4.80;;;39.70;29.60;;;;;;4403929;32;20072;-38
2021/06/21 06:36:10;;;;;;;7.93;5.15;;;39.80;29.60;;;;;;4403801;32;20099;-38
2021/06/21 06:38:36;;;;;;;5.80;5.05;;;39.80;29.50;;;;;;4403845;32;20049;-38
2021/06/21 06:41:05;;;;;;;6.37;5.07;;;39.90;29.50;;;;;;4404166;32;20080;-38
2021/06/21 06:43:32;;;;;;;5.65;4.68;;;40.00;30.10;;;;;;4403759;32;20061;-37
2021/06/21 06:45:58;;;;;;;7.90;4.20;;;40.10;29.40;;;;;;4403560;32;20076;-38
2021/06/21 06:48:25;;;;;;;10.10;5.12;;;40.20;29.60;;;;;;4395202;32;20097;-37
2021/06/21 06:50:51;;;;;;;8.30;5.43;;;40.10;29.60;;;;;;4388385;32;20069;-37
2021/06/21 06:53:26;;;;;;;5.65;5.00;;;40.10;29.50;;;;;;4388680;32;20058;-38
2021/06/21 06:58:37;;;;;;;8.77;5.40;;;40.30;29.60;;;;;;4388176;32;20069;-38
2021/06/21 07:01:04;;;;;;;6.90;5.95;;;40.40;29.60;;;;;;4388266;32;20129;-38
2021/06/21 07:03:30;;;;;;;6.80;5.03;;;40.50;29.30;;;;;;4386796;32;20089;-39
2021/06/21 07:05:56;;;;;;;8.00;5.25;;;40.60;29.30;;;;;;4388492;32;20069;-38
2021/06/21 07:08:23;;;;;;;11.12;5.32;;;40.60;29.10;;;;;;4386728;32;20543;-38
2021/06/21 07:10:49;;;;;;;8.38;6.15;;;40.60;29.20;;;;;;4388222;32;20167;-39
2021/06/21 07:13:16;;;;;;;7.28;5.30;;;40.50;29.30;;;;;;4388104;32;20068;-38
2021/06/21 07:15:42;;;;;;;5.18;4.68;;;40.40;29.50;;;;;;4387805;32;20096;-39
2021/06/21 07:18:09;;;;;;;8.90;5.12;;;40.40;29.60;;;;;;4388135;32;20092;-37
2021/06/21 07:20:36;;;;;;;7.93;5.57;;;40.40;29.80;;;;;;4388170;32;20073;-37
2021/06/21 07:23:02;;;;;;;7.32;5.57;;;40.50;29.50;;;;;;4387852;32;20073;-38
2021/06/21 07:25:29;;;;;;;6.05;5.22;;;40.70;29.40;;;;;;4387588;32;20130;-38
2021/06/21 07:27:55;;;;;;;6.85;6.22;;;40.90;29.40;;;;;;4387940;32;20080;-37
2021/06/21 07:30:22;;;;;;;5.75;4.55;;;41.10;29.40;;;;;;4355211;32;20097;-38
2021/06/21 07:32:49;;;;;;;10.05;5.28;;;41.20;28.70;;;;;;4355614;32;20106;-38
2021/06/21 07:35:15;;;;;;;12.07;5.43;;;41.30;29.10;;;;;;4355142;32;20113;-37
2021/06/21 07:37:42;;;;;;;8.40;4.82;;;41.50;28.80;;;;;;4355282;32;20150;-38
2021/06/21 07:40:09;;;;;;;7.00;5.10;;;41.60;28.70;;;;;;4355592;32;20063;-38
2021/06/21 07:42:35;;;;;;;4.43;4.03;;;41.80;28.10;;;;;;4355677;32;20059;-37
2021/06/21 07:45:04;;;;;;;13.02;4.60;;;41.90;28.00;;;;;;4355242;32;20482;-37
2021/06/21 07:47:30;;;;;;;5.90;4.50;;;42.00;27.90;;;;;;4355491;32;20050;-37
2021/06/21 07:49:57;;;;;;;5.50;4.60;;;42.00;28.10;;;;;;4355037;32;20162;-37
2021/06/21 07:52:23;;;;;;;9.27;4.05;;;41.80;28.00;;;;;;4355598;32;20167;-38
2021/06/21 07:54:50;;;;;;;10.50;4.12;;;41.70;27.80;;;;;;4355042;32;20089;-39
2021/06/21 07:57:16;;;;;;;8.13;3.62;;;41.60;28.10;;;;;;4354972;32;20063;-38
2021/06/21 07:59:43;;;;;;;3.62;3.10;;;41.60;27.50;;;;;;4355150;32;20067;-37
2021/06/21 08:02:10;;;;;;;7.35;3.42;;;41.70;27.40;;;;;;4343054;32;20074;-38
2021/06/21 08:04:36;;;;;;;4.93;2.87;;;42.10;26.80;;;;;;4355274;32;20623;-37
2021/06/21 08:07:04;;;;;;;3.62;2.60;;;42.50;26.80;;;;;;4363347;32;20060;-38
2021/06/21 08:09:31;;;;;;;12.13;3.30;;;42.80;26.40;;;;;;4375364;32;20465;-37
2021/06/21 08:11:57;;;;;;;7.93;2.97;;;43.10;26.10;;;;;;4399734;32;20229;-38
2021/06/21 08:14:24;;;;;;;6.90;3.37;;;43.50;26.20;;;;;;4400133;32;20061;-39
2021/06/21 08:16:50;;;;;;;5.37;3.90;;;43.60;26.00;;;;;;4387742;32;20077;-39
2021/06/21 08:19:17;;;;;;;4.18;2.97;;;43.80;26.10;;;;;;4387519;32;20528;-38
2021/06/21 08:21:43;;;;;;;15.85;4.07;;;43.90;26.20;;;;;;4400488;32;20645;-38
2021/06/21 08:24:11;;;;;;;5.72;3.62;;;44.20;26.30;;;;;;4403523;32;20100;-39
2021/06/21 08:26:38;;;;;;;7.25;2.80;;;44.50;26.10;;;;;;4392831;32;20062;-39
2021/06/21 08:29:04;;;;;;;4.03;3.25;;;44.80;26.00;;;;;;4390465;32;20533;-38
2021/06/21 08:31:31;;;;;;;12.18;3.25;;;45.10;25.50;;;;;;4390584;32;20058;-37
2021/06/21 08:33:58;;;;;;;4.97;3.83;;;45.20;25.10;;;;;;4390531;32;20073;-37
2021/06/21 08:36:25;;;;;;;5.45;3.03;;;45.20;25.60;;;;;;4390778;32;20081;-39
2021/06/21 08:38:51;;;;;;;5.72;2.72;;;45.20;25.00;;;;;;4390224;32;20477;-39
2021/06/21 08:41:19;;;;;;;5.50;2.90;;;45.30;24.90;;;;;;4390425;32;20096;-38
2021/06/21 08:43:47;;;;;;;4.78;2.92;;;45.40;25.00;;;;;;4388684;32;20075;-38
2021/06/21 08:46:18;;;;;;;6.87;3.10;;;45.40;25.00;;;;;;4390297;32;20614;-38
2021/06/21 08:48:46;;;;;;;8.15;4.75;;;45.50;25.10;;;;;;4380272;32;20527;-39
2021/06/21 08:51:14;;;;;;;4.35;3.45;;;45.50;25.30;;;;;;4373746;32;20155;-39
2021/06/21 08:53:40;;;;;;;7.15;3.70;;;45.50;25.40;;;;;;4374888;32;20073;-39
2021/06/21 08:56:08;;;;;;;3.95;3.53;;;45.50;25.50;;;;;;4375078;32;20065;-40
2021/06/21 08:58:34;;;;;;;12.35;4.37;;;45.40;25.50;;;;;;4373789;32;20062;-39
2021/06/21 09:01:01;;;;;;;7.45;4.80;;;45.40;25.60;;;;;;4374936;32;20059;-39
2021/06/21 09:03:29;;;;;;;5.12;3.35;;;45.30;25.60;;;;;;4375555;32;20574;-39
2021/06/21 09:05:55;;;;;;;3.60;3.20;;;45.40;25.30;;;;;;4373684;32;20152;-39
2021/06/21 09:08:22;;;;;;;5.78;3.83;;;45.50;25.30;;;;;;4384461;32;20058;-39
2021/06/21 09:10:50;;;;;;;5.35;3.90;;;45.50;25.20;;;;;;4389850;32;20511;-39
2021/06/21 09:13:18;;;;;;;6.00;3.20;;;45.60;25.00;;;;;;4375495;32;20067;-38
2021/06/21 09:15:50;;;;;;;8.18;3.25;;;45.70;24.70;;;;;;4389982;32;20532;-38
2021/06/21 09:18:39;;;;;;;6.65;3.35;;;45.70;24.50;;;;;;4376533;32;20069;-40
2021/06/21 09:21:23;;;;;;;9.23;4.45;;;45.80;24.60;;;;;;4390015;32;20194;-39
2021/06/21 09:23:51;;;;;;;6.40;2.95;;;45.80;24.40;;;;;;4389656;32;20538;-39
2021/06/21 09:26:29;;;;;;;12.25;2.58;;;45.80;24.20;;;;;;4375676;32;20061;-39
2021/06/21 09:28:57;;;;;;;9.18;2.95;;;45.60;24.10;;;;;;4375721;32;20065;-38
2021/06/21 09:31:25;;;;;;;6.53;2.83;;;45.50;24.30;;;;;;4389654;32;20054;-38
2021/06/21 09:34:14;;;;;;;7.90;2.15;;;45.20;23.90;;;;;;4388940;32;20085;-38
2021/06/21 09:36:41;;;;;;;5.87;3.17;;;45.00;23.80;;;;;;4377713;32;20147;-38
2021/06/21 09:39:30;;;;;;;5.03;2.80;;;44.30;24.30;;;;;;4389580;32;20089;-38
2021/06/21 09:42:23;;;;;;;4.15;2.75;;;43.80;24.60;;;;;;4389487;32;20550;-39
2021/06/21 09:44:56;;;;;;;7.87;5.45;;;43.40;24.90;;;;;;4389234;32;20080;-39
2021/06/21 09:47:34;;;;;;;10.55;3.72;;;43.10;25.40;;;;;;4390910;32;20174;-40
2021/06/21 09:50:20;;;;;;;4.87;3.45;;;42.80;25.70;;;;;;4404455;32;20074;-38
2021/06/21 09:52:54;;;;;;;6.68;3.53;;;42.50;26.00;;;;;;4391036;32;20469;-39
2021/06/21 09:55:29;;;;;;;7.45;3.50;;;42.40;26.20;;;;;;4404552;32;20088;-40
2021/06/21 09:58:13;;;;;;;3.47;3.20;;;42.50;26.60;;;;;;4404375;32;20473;-39
2021/06/21 10:00:46;;;;;;;5.35;3.75;;;42.50;26.00;;;;;;4403931;32;20466;-37
2021/06/21 10:03:20;;;;;;;12.17;3.20;;;42.70;26.30;;;;;;4389915;32;20158;-39
2021/06/21 10:06:08;;;;;;;9.60;3.65;;;42.90;25.80;;;;;;4404021;32;20253;-38
2021/06/21 10:08:46;;;;;;;3.45;3.15;;;43.10;26.10;;;;;;4387349;32;20066;-39
2021/06/21 10:11:41;;;;;;;6.87;3.58;;;43.40;26.00;;;;;;4389040;32;20520;-39
2021/06/21 10:14:19;;;;;;;4.53;3.05;;;43.60;25.50;;;;;;4388801;32;20085;-39
2021/06/21 10:16:48;;;;;;;7.93;3.50;;;43.70;25.40;;;;;;4389284;32;20058;-39
2021/06/21 10:19:14;;;;;;;3.95;2.83;;;43.80;25.30;;;;;;4389204;32;20096;-38
2021/06/21 10:21:46;;;;;;;3.10;2.87;;;43.90;24.90;;;;;;4388510;32;20147;-38
2021/06/21 10:24:13;;;;;;;4.90;3.25;;;44.00;25.00;;;;;;4388454;32;20443;-38
2021/06/21 10:26:41;;;;;;;6.28;3.10;;;43.90;25.20;;;;;;4386822;32;20069;-39
2021/06/21 10:29:07;;;;;;;7.00;3.35;;;43.70;25.30;;;;;;4388835;32;20062;-39
2021/06/21 10:31:34;;;;;;;8.85;3.45;;;43.60;25.20;;;;;;4388873;32;20170;-38
2021/06/21 10:34:03;;;;;;;9.43;3.53;;;43.60;25.40;;;;;;4387174;32;20078;-38
2021/06/21 10:36:47;;;;;;;3.40;3.10;;;43.80;25.50;;;;;;4386959;32;20539;-37
2021/06/21 10:39:34;;;;;;;6.62;2.83;;;43.90;25.30;;;;;;4388328;32;20066;-39
2021/06/21 10:42:10;;;;;;;5.53;3.37;;;44.00;25.10;;;;;;4388719;32;20104;-38
2021/06/21 10:44:41;;;;;;;5.53;3.33;;;44.30;25.00;;;;;;4388183;32;20157;-38
2021/06/21 10:47:38;;;;;;;6.53;2.65;;;44.60;24.90;;;;;;4388280;32;20146;-37
2021/06/21 10:50:16;;;;;;;4.32;3.17;;;44.90;24.80;;;;;;4373416;32;20466;-37
2021/06/21 10:52:48;;;;;;;7.65;3.05;;;45.10;24.40;;;;;;4373220;32;20057;-38
2021/06/21 10:55:27;;;;;;;10.88;7.40;;;45.10;24.30;;;;;;4372994;32;20104;-40
2021/06/21 10:58:07;;;;;;;6.30;2.72;;;45.20;24.20;;;;;;4373111;32;20081;-40
2021/06/21 11:00:54;;;;;;;5.95;2.95;;;45.20;24.10;;;;;;4372977;32;20077;-39
2021/06/21 11:03:24;;;;;;;5.57;2.78;;;45.20;24.20;;;;;;4373525;32;20070;-40
2021/06/21 11:05:52;;;;;;;7.15;2.80;;;45.20;24.20;;;;;;4373481;32;20077;-40
2021/06/21 11:08:21;;;;;;;5.65;1.90;;;45.10;24.20;;;;;;4381049;32;20165;-39
2021/06/21 11:10:52;;;;;;;5.30;2.47;;;45.20;23.90;;;;;;4388017;32;20164;-39
2021/06/21 11:13:34;;;;;;;4.85;2.58;;;45.30;23.80;;;;;;4387789;32;20251;-39
2021/06/21 11:16:21;;;;;;;6.37;2.45;;;45.50;23.80;;;;;;4388009;32;20247;-40
2021/06/21 11:19:22;;;;;;;5.00;2.47;;;45.50;23.80;;;;;;4387908;32;20517;-40
2021/06/21 11:21:58;;;;;;;4.90;2.55;;;45.40;23.70;;;;;;4384487;32;20537;-38
2021/06/21 11:24:37;;;;;;;6.15;2.10;;;45.40;23.70;;;;;;4388281;32;20070;-40
2021/06/21 11:27:06;;;;;;;3.53;2.47;;;45.50;23.70;;;;;;4388580;32;20450;-39
2021/06/21 11:29:34;;;;;;;7.50;2.50;;;45.20;23.80;;;;;;4374302;32;20481;-39
2021/06/21 11:32:03;;;;;;;3.92;2.08;;;45.10;23.80;;;;;;4387879;32;20103;-38
2021/06/21 11:35:06;;;;;;;5.22;3.08;;;45.10;23.70;;;;;;4388147;32;20138;-38
2021/06/21 11:37:44;;;;;;;4.90;2.60;;;45.30;23.80;;;;;;4340857;33;20130;-39
2021/06/21 11:40:21;;;;;;;6.20;2.47;;;45.40;23.60;;;;;;4328705;33;20070;-39
2021/06/21 11:42:57;;;;;;;3.65;2.58;;;45.20;23.50;;;;;;4340783;33;20071;-39
2021/06/21 11:45:57;;;;;;;3.85;3.12;;;45.10;23.80;;;;;;4340694;33;20079;-39
2021/06/21 11:48:44;;;;;;;3.00;2.70;;;44.80;23.80;;;;;;4340302;32;20062;-39
2021/06/21 11:51:16;;;;;;;5.80;2.08;;;44.50;23.80;;;;;;4339983;33;20158;-38
2021/06/21 11:53:43;;;;;;;4.47;2.60;;;44.30;23.80;;;;;;4340619;33;20598;-39
2021/06/21 11:56:23;;;;;;;5.28;2.45;;;44.00;24.00;;;;;;4341357;33;20085;-38
2021/06/21 11:58:51;;;;;;;4.35;1.92;;;44.00;23.90;;;;;;4343578;32;20132;-39
2021/06/21 12:01:26;;;;;;;4.43;2.85;;;44.00;23.80;;;;;;4343533;32;20067;-38
2021/06/21 12:04:01;;;;;;;5.90;2.53;;;43.90;24.10;;;;;;4343282;33;20071;-39
2021/06/21 12:06:29;;;;;;;5.72;2.40;;;43.80;24.20;;;;;;4343414;32;20140;-40
2021/06/21 12:08:56;;;;;;;3.15;2.67;;;43.90;24.20;;;;;;4342998;33;20074;-38
2021/06/21 12:11:25;;;;;;;15.60;7.45;;;44.00;23.90;;;;;;4357503;32;20150;-40
2021/06/21 12:14:05;;;;;;;5.50;2.62;;;44.10;24.00;;;;;;4375428;32;20074;-39
2021/06/21 12:16:36;;;;;;;8.40;2.70;;;44.30;24.00;;;;;;4375832;32;20086;-39
2021/06/21 12:19:03;;;;;;;3.60;2.28;;;44.40;23.80;;;;;;4375322;32;20491;-39
2021/06/21 12:21:37;;;;;;;3.75;2.40;;;44.50;23.80;;;;;;4375807;32;20131;-39
2021/06/21 12:24:25;;;;;;;6.57;2.37;;;44.60;23.80;;;;;;4375364;32;20062;-39
2021/06/21 12:27:02;;;;;;;14.18;2.80;;;44.60;23.80;;;;;;4373978;32;20074;-39
2021/06/21 12:29:34;;;;;;;5.57;2.85;;;44.60;23.80;;;;;;4375678;32;20601;-39
2021/06/21 12:32:14;;;;;;;3.60;1.92;;;44.60;24.10;;;;;;4375076;32;20094;-40
2021/06/21 12:34:54;;;;;;;7.55;2.65;;;44.50;24.00;;;;;;4375670;32;20094;-38
2021/06/21 12:37:31;;;;;;;7.20;2.80;;;44.40;23.90;;;;;;4375372;32;20073;-39
2021/06/21 12:40:04;;;;;;;5.43;2.42;;;44.40;24.00;;;;;;4375478;32;20069;-42
2021/06/21 12:42:34;;;;;;;4.55;1.87;;;44.40;23.90;;;;;;4375383;32;20098;-39
2021/06/21 12:45:18;;;;;;;4.03;2.45;;;44.40;24.00;;;;;;4375083;32;20611;-39
2021/06/21 12:47:55;;;;;;;5.70;2.15;;;44.40;23.90;;;;;;4369538;32;20070;-38
2021/06/21 12:50:24;;;;;;;11.27;3.62;;;44.30;23.90;;;;;;4358519;32;20097;-39
2021/06/21 12:52:52;;;;;;;4.68;2.80;;;44.40;24.10;;;;;;4360003;32;20474;-39
2021/06/21 12:55:29;;;;;;;5.85;2.62;;;44.40;24.10;;;;;;4358428;32;20690;-39
2021/06/21 12:58:02;;;;;;;9.18;2.70;;;44.20;24.00;;;;;;4359576;32;20067;-39
2021/06/21 13:00:49;;;;;;;6.78;2.95;;;44.20;24.20;;;;;;4359798;32;20070;-38
2021/06/21 13:03:17;;;;;;;5.10;2.55;;;44.20;24.20;;;;;;4345723;32;20066;-38
2021/06/21 13:05:57;;;;;;;4.47;2.25;;;44.30;24.10;;;;;;4359868;32;20157;-38